Time;durP1;ratioP1;P1;durP2;ratioP2;P2;SDS_P1;SDS_P2;PMS_P1;PMS_P2;Temp;Humidity;BMP_temperature;BMP_pressure;BME280_temperature;BME280_humidity;BME280_pressure;Samples;Min_cycle;Max_cycle;Signal;HPM_P1;HPM_P2
2021/12/22 00:01:24;;;;;;;13.27;7.75;;;3.20;75.70;;;;;;4957918;28;20027;-70
2021/12/22 00:03:50;;;;;;;14.93;8.45;;;3.20;75.60;;;;;;4955752;28;20077;-70
2021/12/22 00:06:20;;;;;;;14.07;8.30;;;3.30;75.70;;;;;;4953749;28;20027;-70
2021/12/22 00:08:46;;;;;;;13.57;7.38;;;3.10;75.30;;;;;;4955782;28;20037;-70
2021/12/22 00:11:12;;;;;;;19.20;9.70;;;3.10;75.40;;;;;;4953454;28;20031;-70
2021/12/22 00:13:38;;;;;;;16.67;8.40;;;3.10;74.90;;;;;;4952552;28;20039;-71
2021/12/22 00:16:04;;;;;;;14.10;6.93;;;3.00;75.40;;;;;;4957145;28;20076;-71
2021/12/22 00:18:30;;;;;;;12.75;8.35;;;3.10;75.50;;;;;;4955678;28;20705;-71
2021/12/22 00:20:56;;;;;;;14.55;8.45;;;3.00;76.00;;;;;;4947353;28;20026;-71
2021/12/22 00:23:22;;;;;;;13.80;7.70;;;3.00;75.80;;;;;;4944744;28;20430;-71
2021/12/22 00:25:47;;;;;;;12.38;7.72;;;3.10;76.00;;;;;;4952240;28;20071;-71
2021/12/22 00:28:13;;;;;;;14.73;8.80;;;3.00;75.50;;;;;;4956960;28;20439;-71
2021/12/22 00:30:39;;;;;;;13.77;8.32;;;2.90;75.60;;;;;;4955424;28;20216;-71
2021/12/22 00:33:07;;;;;;;16.35;8.88;;;3.00;75.60;;;;;;4954209;28;20046;-71
2021/12/22 00:35:43;;;;;;;14.55;8.55;;;2.90;75.70;;;;;;4955394;28;20051;-71
2021/12/22 00:38:11;;;;;;;10.55;6.90;;;3.00;75.80;;;;;;4952911;28;20019;-71
2021/12/22 00:40:37;;;;;;;11.85;7.05;;;2.90;75.60;;;;;;4953957;28;20110;-71
2021/12/22 00:43:03;;;;;;;16.33;8.88;;;3.00;75.80;;;;;;4956300;28;20030;-71
2021/12/22 00:45:32;;;;;;;14.00;8.63;;;2.90;75.90;;;;;;4955130;28;20020;-70
2021/12/22 00:47:58;;;;;;;14.98;8.45;;;2.90;75.60;;;;;;4955023;28;20027;-71
2021/12/22 00:50:24;;;;;;;16.60;9.07;;;2.80;75.30;;;;;;4952432;28;20019;-70
2021/12/22 00:52:50;;;;;;;14.88;9.40;;;2.80;76.30;;;;;;4950099;28;20039;-71
2021/12/22 00:55:19;;;;;;;13.35;7.95;;;2.80;75.60;;;;;;4956876;28;20558;-70
2021/12/22 00:57:45;;;;;;;14.40;8.00;;;2.90;75.50;;;;;;4954656;28;20098;-71
2021/12/22 01:00:12;;;;;;;14.32;7.50;;;2.90;76.00;;;;;;4954943;28;20076;-71
2021/12/22 01:02:38;;;;;;;12.90;7.95;;;2.80;75.70;;;;;;4954818;28;20510;-71
2021/12/22 01:05:05;;;;;;;10.60;6.80;;;2.80;76.30;;;;;;4951808;28;20023;-71
2021/12/22 01:07:31;;;;;;;15.27;7.95;;;2.80;75.60;;;;;;4955029;28;20161;-71
2021/12/22 01:09:56;;;;;;;15.10;8.38;;;2.80;75.70;;;;;;4955369;28;20142;-71
2021/12/22 01:12:22;;;;;;;13.07;7.40;;;2.80;75.10;;;;;;4954334;28;20439;-71
2021/12/22 01:14:48;;;;;;;14.18;8.20;;;2.70;75.20;;;;;;4954887;28;20380;-70
2021/12/22 01:17:16;;;;;;;9.57;6.00;;;2.60;75.10;;;;;;4952985;28;20027;-71
2021/12/22 01:19:56;;;;;;;13.57;7.10;;;2.60;75.60;;;;;;4952201;28;20027;-70
2021/12/22 01:24:49;;;;;;;12.65;6.88;;;2.60;75.50;;;;;;4953174;28;20042;-71
2021/12/22 01:27:21;;;;;;;16.63;8.20;;;2.60;76.10;;;;;;4954249;28;20028;-71
2021/12/22 01:29:47;;;;;;;16.33;9.30;;;2.50;75.70;;;;;;4954582;28;20117;-71
2021/12/22 01:32:14;;;;;;;14.88;8.48;;;2.50;75.80;;;;;;4952427;28;20150;-71
2021/12/22 01:34:39;;;;;;;11.95;7.60;;;2.60;76.10;;;;;;4952592;28;20380;-71
2021/12/22 01:37:05;;;;;;;15.55;9.27;;;2.50;75.70;;;;;;4956348;28;20490;-71
2021/12/22 01:39:30;;;;;;;14.18;7.65;;;2.50;75.50;;;;;;4954556;28;20519;-71
2021/12/22 01:41:57;;;;;;;11.40;7.00;;;2.50;75.80;;;;;;4954083;28;20035;-71
2021/12/22 01:44:46;;;;;;;15.65;7.97;;;2.50;75.80;;;;;;4953657;28;20022;-71
2021/12/22 01:49:55;;;;;;;;;;;2.50;75.90;;;;;;4935463;28;20472;-71
2021/12/22 01:52:22;;;;;;;13.38;7.40;;;2.40;75.70;;;;;;4956161;28;19922;-71
2021/12/22 01:55:02;;;;;;;12.88;6.80;;;2.40;76.10;;;;;;4953894;28;20412;-71
2021/12/22 01:57:28;;;;;;;11.27;6.40;;;2.30;76.10;;;;;;4954253;28;20480;-71
2021/12/22 01:59:54;;;;;;;13.65;7.53;;;2.20;76.50;;;;;;4954077;28;20027;-71
2021/12/22 02:02:19;;;;;;;11.38;6.38;;;2.20;75.90;;;;;;4952877;28;20065;-71
2021/12/22 02:04:46;;;;;;;12.38;7.18;;;2.20;76.40;;;;;;4951024;28;20085;-71
2021/12/22 02:07:12;;;;;;;13.50;7.55;;;2.20;76.60;;;;;;4955885;28;20071;-71
2021/12/22 02:12:12;;;;;;;13.10;7.45;;;2.30;76.70;;;;;;4953892;28;20501;-70
2021/12/22 02:14:40;;;;;;;11.45;7.60;;;2.30;76.10;;;;;;4953899;28;20395;-70
2021/12/22 02:17:08;;;;;;;14.23;7.55;;;2.30;76.30;;;;;;4950838;28;20024;-70
2021/12/22 02:19:47;;;;;;;11.88;6.78;;;2.20;76.20;;;;;;4953401;28;20023;-70
2021/12/22 02:22:16;;;;;;;10.45;6.10;;;2.00;76.20;;;;;;4954559;28;20026;-70
2021/12/22 02:24:47;;;;;;;11.63;6.55;;;2.00;76.30;;;;;;4953441;28;20032;-70
2021/12/22 02:27:38;;;;;;;9.27;5.80;;;2.10;76.80;;;;;;4953883;28;20028;-70
2021/12/22 02:30:14;;;;;;;13.85;7.18;;;2.00;76.40;;;;;;4953669;28;20035;-70
2021/12/22 02:35:08;;;;;;;10.77;7.07;;;2.00;76.80;;;;;;4950964;28;20404;-70
2021/12/22 02:37:42;;;;;;;14.25;7.18;;;2.00;77.00;;;;;;4953486;28;20023;-71
2021/12/22 02:40:14;;;;;;;15.68;8.55;;;2.00;76.50;;;;;;4953359;28;20026;-71
2021/12/22 02:42:41;;;;;;;10.27;6.20;;;1.80;76.30;;;;;;4953558;28;20051;-71
2021/12/22 02:45:17;;;;;;;12.15;6.68;;;1.80;77.10;;;;;;4953494;28;20057;-71
2021/12/22 02:47:43;;;;;;;10.68;6.63;;;1.90;77.20;;;;;;4953575;28;20029;-71
2021/12/22 02:50:11;;;;;;;12.60;6.57;;;2.00;77.30;;;;;;4950679;28;20129;-71
2021/12/22 02:52:54;;;;;;;11.95;6.93;;;2.00;77.10;;;;;;4951804;28;20042;-71
2021/12/22 02:55:27;;;;;;;13.07;8.03;;;2.00;77.30;;;;;;4954964;28;20031;-71
2021/12/22 02:57:55;;;;;;;17.98;8.93;;;2.10;78.10;;;;;;4953720;28;20031;-71
2021/12/22 03:05:58;;;;;;;16.73;8.98;;;2.00;77.00;;;;;;4990046;28;20126;-71
2021/12/22 03:08:24;;;;;;;12.60;7.55;;;1.80;76.60;;;;;;4989030;28;20490;-71
2021/12/22 03:10:53;;;;;;;14.35;7.63;;;1.70;77.10;;;;;;4989889;28;20609;-71
2021/12/22 03:13:20;;;;;;;14.95;8.15;;;1.80;77.70;;;;;;4993463;28;20042;-70
2021/12/22 03:15:46;;;;;;;15.18;8.05;;;1.60;77.90;;;;;;4993387;28;20407;-71
2021/12/22 03:18:12;;;;;;;12.25;6.50;;;1.70;77.30;;;;;;4993657;28;20625;-71
2021/12/22 03:20:38;;;;;;;12.50;7.57;;;1.70;77.60;;;;;;4993389;28;20049;-71
2021/12/22 03:23:04;;;;;;;14.52;7.63;;;1.80;77.70;;;;;;4993271;28;20166;-71
2021/12/22 03:25:30;;;;;;;12.30;7.30;;;1.90;77.90;;;;;;4993724;28;20092;-71
2021/12/22 03:28:02;;;;;;;15.07;8.70;;;1.90;77.30;;;;;;4998398;28;20042;-69
2021/12/22 03:30:28;;;;;;;14.20;8.70;;;1.80;76.90;;;;;;4990362;28;20122;-71
2021/12/22 03:32:54;;;;;;;10.77;6.97;;;1.80;77.70;;;;;;4993081;28;20133;-71
2021/12/22 03:35:21;;;;;;;11.98;7.25;;;1.80;77.50;;;;;;4993351;28;20030;-71
2021/12/22 03:37:51;;;;;;;13.85;8.55;;;1.90;77.70;;;;;;4992839;28;20039;-71
2021/12/22 03:40:19;;;;;;;11.88;7.13;;;1.80;76.70;;;;;;4957272;28;20488;-71
2021/12/22 03:42:44;;;;;;;13.27;7.53;;;1.80;76.70;;;;;;4955462;28;20024;-71
2021/12/22 03:45:10;;;;;;;13.10;7.57;;;1.70;77.30;;;;;;4956163;28;20027;-70
2021/12/22 03:47:36;;;;;;;14.20;7.78;;;1.70;77.30;;;;;;4956125;28;20038;-70
2021/12/22 03:50:03;;;;;;;12.43;7.40;;;1.70;77.60;;;;;;4952410;28;20035;-71
2021/12/22 03:52:29;;;;;;;14.02;7.53;;;1.70;77.90;;;;;;4956408;28;20126;-71
2021/12/22 03:54:58;;;;;;;13.57;7.38;;;1.70;77.40;;;;;;4956494;28;20116;-71
2021/12/22 03:57:27;;;;;;;11.60;6.65;;;1.80;77.30;;;;;;4955929;28;20114;-71
2021/12/22 03:59:57;;;;;;;11.43;6.72;;;1.80;76.90;;;;;;4955894;28;20035;-71
2021/12/22 04:02:23;;;;;;;12.93;7.40;;;1.60;77.40;;;;;;4955146;28;20022;-71
2021/12/22 04:04:50;;;;;;;13.50;7.88;;;1.60;77.60;;;;;;4952508;28;20084;-70
2021/12/22 04:07:18;;;;;;;12.07;7.03;;;1.50;77.70;;;;;;4957490;28;20019;-70
2021/12/22 04:09:43;;;;;;;12.55;7.40;;;1.60;77.80;;;;;;4955601;28;20419;-71
2021/12/22 04:12:09;;;;;;;13.52;7.95;;;1.70;77.90;;;;;;4955728;28;20035;-71
2021/12/22 04:14:35;;;;;;;10.05;6.50;;;1.60;78.00;;;;;;4955721;28;20026;-71
2021/12/22 04:17:01;;;;;;;13.27;7.35;;;1.60;77.80;;;;;;4950805;28;20031;-71
2021/12/22 04:19:27;;;;;;;11.52;7.07;;;1.60;77.80;;;;;;4957010;28;20027;-71
2021/12/22 04:21:52;;;;;;;11.32;7.03;;;1.60;77.80;;;;;;4955763;28;20061;-71
2021/12/22 04:24:19;;;;;;;12.77;7.45;;;1.50;77.80;;;;;;4954473;28;20393;-71
2021/12/22 04:26:45;;;;;;;13.60;7.57;;;1.50;77.80;;;;;;4955427;28;20102;-71
2021/12/22 04:29:12;;;;;;;10.93;6.47;;;1.50;77.90;;;;;;4953203;28;20562;-70
2021/12/22 04:31:38;;;;;;;11.55;6.88;;;1.50;78.00;;;;;;4954265;28;20035;-71
2021/12/22 04:34:08;;;;;;;10.80;6.20;;;1.50;77.80;;;;;;4956599;28;20533;-71
2021/12/22 04:36:34;;;;;;;13.05;7.32;;;1.60;78.00;;;;;;4955417;28;20114;-70
2021/12/22 04:39:00;;;;;;;10.55;6.47;;;1.60;77.80;;;;;;4955306;28;20030;-70
2021/12/22 04:41:26;;;;;;;10.40;6.32;;;1.60;78.30;;;;;;4955241;28;20019;-71
2021/12/22 04:43:53;;;;;;;10.13;6.57;;;1.50;77.80;;;;;;4951542;28;20062;-71
2021/12/22 04:46:20;;;;;;;9.30;6.00;;;1.50;77.80;;;;;;4955828;28;20035;-71
2021/12/22 04:48:46;;;;;;;13.73;7.72;;;1.60;77.60;;;;;;4947665;28;20392;-70
2021/12/22 04:51:22;;;;;;;12.80;7.10;;;1.60;77.60;;;;;;4949657;28;20502;-71
2021/12/22 04:53:55;;;;;;;10.57;6.72;;;1.50;77.80;;;;;;4955093;28;20045;-71
2021/12/22 04:56:20;;;;;;;12.90;7.15;;;1.60;78.10;;;;;;4953948;28;20015;-71
2021/12/22 04:58:46;;;;;;;12.52;7.60;;;1.50;77.50;;;;;;4952196;28;20978;-71
2021/12/22 05:01:12;;;;;;;14.60;8.10;;;1.40;77.80;;;;;;4957190;28;20024;-71
2021/12/22 05:03:40;;;;;;;10.60;6.53;;;1.40;77.60;;;;;;4954479;28;20397;-71
2021/12/22 05:06:06;;;;;;;10.13;6.57;;;1.40;78.20;;;;;;4954934;28;20025;-70
2021/12/22 05:08:31;;;;;;;13.48;7.47;;;1.60;78.40;;;;;;4954873;28;20106;-71
2021/12/22 05:10:57;;;;;;;10.75;6.20;;;1.60;78.10;;;;;;4951111;28;20032;-71
2021/12/22 05:13:22;;;;;;;13.98;7.85;;;1.50;78.80;;;;;;4956985;28;20490;-71
2021/12/22 05:15:48;;;;;;;10.88;6.30;;;1.60;78.30;;;;;;4954942;28;20515;-70
2021/12/22 05:20:45;;;;;;;11.00;7.28;;;1.50;78.10;;;;;;4954836;28;20138;-71
2021/12/22 05:23:11;;;;;;;10.68;6.82;;;1.50;78.00;;;;;;4952494;28;20114;-71
2021/12/22 05:25:37;;;;;;;9.43;5.75;;;1.60;78.50;;;;;;4953755;28;20034;-71
2021/12/22 05:28:02;;;;;;;14.05;7.97;;;1.80;78.70;;;;;;4955668;28;20038;-70
2021/12/22 05:30:28;;;;;;;13.88;7.40;;;1.70;78.10;;;;;;4954667;28;20038;-71
2021/12/22 05:32:55;;;;;;;11.75;7.47;;;1.60;77.80;;;;;;4954150;28;20039;-71
2021/12/22 05:35:21;;;;;;;12.75;7.68;;;1.50;77.80;;;;;;4952830;28;20068;-71
2021/12/22 05:37:46;;;;;;;13.82;7.45;;;1.50;78.40;;;;;;4951725;28;20446;-71
2021/12/22 05:40:12;;;;;;;13.25;8.00;;;1.60;78.60;;;;;;4956224;28;20019;-71
2021/12/22 05:42:38;;;;;;;13.95;8.88;;;1.40;78.00;;;;;;4954590;28;20046;-71
2021/12/22 05:45:05;;;;;;;14.30;8.38;;;1.50;78.60;;;;;;4954252;28;20076;-71
2021/12/22 05:47:31;;;;;;;10.98;6.88;;;1.50;78.20;;;;;;4954017;28;20398;-71
2021/12/22 05:49:56;;;;;;;12.82;7.25;;;1.60;79.10;;;;;;4950180;28;20019;-70
2021/12/22 05:52:22;;;;;;;14.77;8.02;;;1.80;79.20;;;;;;4956062;28;20550;-71
2021/12/22 05:54:49;;;;;;;13.77;6.90;;;1.60;78.20;;;;;;4954246;28;20061;-71
2021/12/22 05:57:15;;;;;;;10.98;6.72;;;1.70;78.20;;;;;;4954131;28;20026;-71
2021/12/22 05:59:41;;;;;;;15.23;8.57;;;1.60;78.50;;;;;;4954123;28;20026;-71
2021/12/22 06:02:06;;;;;;;13.88;7.57;;;1.70;78.20;;;;;;4950987;28;20020;-71
2021/12/22 06:04:32;;;;;;;10.38;6.10;;;1.60;78.80;;;;;;4954164;28;20491;-71
2021/12/22 06:06:58;;;;;;;12.88;7.88;;;1.60;78.20;;;;;;4954735;28;20031;-71
2021/12/22 06:09:23;;;;;;;11.75;6.88;;;1.50;78.50;;;;;;4953254;28;20051;-71
2021/12/22 06:11:49;;;;;;;14.20;7.95;;;1.60;78.70;;;;;;4953994;28;20043;-71
2021/12/22 06:14:16;;;;;;;10.95;6.80;;;1.60;78.60;;;;;;4952201;28;20059;-71
2021/12/22 06:16:41;;;;;;;13.60;7.47;;;1.60;79.20;;;;;;4951219;28;20031;-70
2021/12/22 06:19:09;;;;;;;10.00;5.85;;;1.60;78.30;;;;;;4953903;28;20066;-71
2021/12/22 06:21:35;;;;;;;14.43;7.60;;;1.50;78.80;;;;;;4953981;28;20023;-71
2021/12/22 06:24:01;;;;;;;14.65;8.07;;;1.50;79.10;;;;;;4953713;28;20038;-71
2021/12/22 06:26:27;;;;;;;14.95;8.98;;;1.50;79.00;;;;;;4953660;28;20058;-71
2021/12/22 06:28:52;;;;;;;12.60;7.57;;;1.50;78.80;;;;;;4948561;28;20120;-71
2021/12/22 06:31:18;;;;;;;11.15;6.57;;;1.50;79.20;;;;;;4955461;28;20028;-71
2021/12/22 06:33:44;;;;;;;11.65;7.15;;;1.60;79.40;;;;;;4953489;28;20035;-71
2021/12/22 06:36:10;;;;;;;14.90;8.88;;;1.60;79.00;;;;;;4953762;28;20027;-71
2021/12/22 06:38:36;;;;;;;12.63;7.63;;;1.50;78.90;;;;;;4953892;28;20114;-71
2021/12/22 06:41:03;;;;;;;11.98;7.07;;;1.60;78.70;;;;;;4950135;28;20123;-71
2021/12/22 06:43:30;;;;;;;12.48;7.43;;;1.50;78.60;;;;;;4954384;28;20015;-70
2021/12/22 06:45:56;;;;;;;12.32;6.65;;;1.50;79.10;;;;;;4950685;28;20392;-71
2021/12/22 06:48:21;;;;;;;12.15;6.63;;;1.50;80.40;;;;;;4952988;28;20053;-69
2021/12/22 06:50:47;;;;;;;13.93;7.55;;;1.50;79.60;;;;;;4953599;28;20080;-69
2021/12/22 06:53:13;;;;;;;14.73;8.38;;;1.60;79.00;;;;;;4951232;28;20065;-70
2021/12/22 06:55:38;;;;;;;13.20;8.10;;;1.50;79.10;;;;;;4951869;28;20058;-71
2021/12/22 06:58:04;;;;;;;17.98;9.63;;;1.40;79.10;;;;;;4986011;28;20027;-71
2021/12/22 07:00:30;;;;;;;12.77;6.97;;;1.40;79.10;;;;;;4953142;28;20028;-70
2021/12/22 07:02:57;;;;;;;10.88;6.18;;;1.40;79.50;;;;;;4953398;28;20027;-71
2021/12/22 07:05:23;;;;;;;11.75;6.43;;;1.50;79.50;;;;;;4952467;28;20045;-71
2021/12/22 07:07:49;;;;;;;16.20;8.77;;;1.50;79.50;;;;;;4950083;28;20535;-71
2021/12/22 07:10:15;;;;;;;14.85;7.80;;;1.50;79.60;;;;;;4955064;28;20059;-70
2021/12/22 07:12:48;;;;;;;14.45;8.15;;;1.60;79.40;;;;;;4953088;28;20118;-71
2021/12/22 07:15:16;;;;;;;12.20;6.68;;;1.50;79.10;;;;;;4952996;28;20082;-71
2021/12/22 07:17:42;;;;;;;14.23;8.02;;;1.30;79.30;;;;;;4953369;28;20031;-71
2021/12/22 07:20:09;;;;;;;16.15;8.38;;;1.40;79.50;;;;;;4950453;28;20393;-70
2021/12/22 07:22:35;;;;;;;14.13;7.40;;;1.30;79.40;;;;;;4952681;28;20104;-71
2021/12/22 07:25:02;;;;;;;15.60;8.48;;;1.40;79.70;;;;;;4954115;28;20027;-71
2021/12/22 07:27:28;;;;;;;14.23;8.52;;;1.30;79.50;;;;;;4953220;28;20047;-71
2021/12/22 07:29:54;;;;;;;15.07;8.10;;;1.30;79.80;;;;;;4952661;28;20483;-71
2021/12/22 07:32:19;;;;;;;15.63;8.63;;;1.30;80.10;;;;;;4951695;28;20037;-69
2021/12/22 07:34:58;;;;;;;19.83;9.70;;;1.30;80.30;;;;;;4949983;28;20466;-70
2021/12/22 07:37:33;;;;;;;16.67;8.88;;;1.20;80.20;;;;;;4961745;28;20093;-70
2021/12/22 07:39:59;;;;;;;16.45;8.20;;;1.20;80.50;;;;;;4952368;28;20036;-70
2021/12/22 07:42:24;;;;;;;11.15;6.60;;;1.40;80.80;;;;;;4952761;28;20027;-70
2021/12/22 07:44:50;;;;;;;13.27;8.00;;;1.50;80.40;;;;;;4952514;28;20118;-70
2021/12/22 07:47:16;;;;;;;12.13;6.50;;;1.40;79.90;;;;;;4949715;28;20027;-70
2021/12/22 07:49:42;;;;;;;13.00;6.90;;;1.50;80.00;;;;;;4950799;28;20028;-70
2021/12/22 07:52:08;;;;;;;13.32;8.00;;;1.40;80.00;;;;;;4952659;28;20034;-69
2021/12/22 07:54:33;;;;;;;12.15;7.13;;;1.40;79.60;;;;;;4951695;28;20114;-69
2021/12/22 07:56:59;;;;;;;12.45;7.25;;;1.30;79.70;;;;;;4952372;28;20093;-69
2021/12/22 07:59:25;;;;;;;11.80;6.65;;;1.50;80.60;;;;;;4954792;28;20471;-70
2021/12/22 08:01:50;;;;;;;9.80;5.43;;;1.50;80.50;;;;;;4952697;28;20043;-70
2021/12/22 08:04:16;;;;;;;12.98;6.75;;;1.60;80.80;;;;;;4957814;28;20495;-69
2021/12/22 08:06:42;;;;;;;12.48;7.38;;;1.60;79.70;;;;;;4955886;28;20450;-70
2021/12/22 08:09:08;;;;;;;11.38;6.20;;;1.70;79.80;;;;;;4954432;28;20047;-70
2021/12/22 08:11:34;;;;;;;15.10;8.00;;;1.70;79.80;;;;;;4955364;28;20054;-70
2021/12/22 08:13:59;;;;;;;13.40;8.27;;;1.70;79.20;;;;;;4951924;28;20503;-70
2021/12/22 08:16:25;;;;;;;16.02;8.60;;;1.60;79.30;;;;;;4957390;28;20106;-70
2021/12/22 08:18:51;;;;;;;13.32;6.90;;;1.60;79.30;;;;;;4955804;28;20065;-70
2021/12/22 08:21:16;;;;;;;15.98;8.57;;;1.60;79.80;;;;;;4955507;28;20107;-70
2021/12/22 08:23:42;;;;;;;13.95;7.65;;;1.50;78.90;;;;;;4955612;28;20503;-70
2021/12/22 08:26:08;;;;;;;14.25;7.65;;;1.50;79.60;;;;;;4952628;28;20031;-70
2021/12/22 08:28:33;;;;;;;16.90;8.73;;;1.40;79.50;;;;;;4955526;28;20036;-70
2021/12/22 08:30:59;;;;;;;16.67;9.25;;;1.40;79.60;;;;;;4956194;28;20035;-70
2021/12/22 08:33:29;;;;;;;18.17;9.95;;;1.30;79.90;;;;;;4955245;28;20500;-70
2021/12/22 08:38:51;;;;;;;14.35;7.80;;;1.30;79.70;;;;;;4955426;28;20038;-70
2021/12/22 08:41:39;;;;;;;13.40;7.95;;;1.20;80.40;;;;;;4953180;28;20027;-70
2021/12/22 08:44:10;;;;;;;15.52;8.35;;;1.30;80.50;;;;;;4937836;28;20476;-70
2021/12/22 08:46:42;;;;;;;15.23;8.18;;;1.20;80.50;;;;;;4954712;28;20069;-70
2021/12/22 08:49:08;;;;;;;16.65;8.23;;;1.30;80.60;;;;;;4954903;28;20038;-70
2021/12/22 08:51:34;;;;;;;14.93;8.38;;;1.40;79.80;;;;;;4955146;28;20026;-71
2021/12/22 08:54:00;;;;;;;15.57;7.70;;;1.30;79.70;;;;;;4955226;28;20162;-70
2021/12/22 08:56:28;;;;;;;14.70;8.48;;;1.30;80.50;;;;;;4954499;28;20106;-70
2021/12/22 08:58:54;;;;;;;17.45;9.43;;;1.40;80.50;;;;;;4951368;28;20027;-71
2021/12/22 09:01:21;;;;;;;14.40;7.43;;;1.40;80.60;;;;;;4957002;28;20027;-71
2021/12/22 09:03:47;;;;;;;15.30;8.15;;;1.40;80.00;;;;;;4953947;28;20124;-71
2021/12/22 09:06:13;;;;;;;11.82;6.88;;;1.40;80.60;;;;;;4955116;28;20479;-70
2021/12/22 09:08:40;;;;;;;13.10;6.68;;;1.60;80.50;;;;;;4954915;28;20069;-70
2021/12/22 09:11:06;;;;;;;14.07;8.35;;;1.60;80.60;;;;;;4950619;28;20124;-70
2021/12/22 09:13:31;;;;;;;18.65;9.82;;;1.50;80.70;;;;;;4955122;28;20457;-70
2021/12/22 09:15:57;;;;;;;18.67;10.30;;;1.60;80.70;;;;;;4955492;28;20023;-70
2021/12/22 09:18:23;;;;;;;17.00;8.38;;;1.50;79.40;;;;;;4954752;28;20075;-70
2021/12/22 09:20:49;;;;;;;13.73;8.10;;;1.40;80.10;;;;;;4954860;28;20110;-70
2021/12/22 09:23:15;;;;;;;18.95;9.63;;;1.40;80.70;;;;;;4952795;28;20484;-70
2021/12/22 09:25:41;;;;;;;13.55;7.18;;;1.50;80.20;;;;;;4952752;28;20034;-70
2021/12/22 09:28:07;;;;;;;17.45;8.73;;;1.60;80.20;;;;;;4956518;28;20035;-70
2021/12/22 09:30:36;;;;;;;16.88;8.98;;;1.60;80.30;;;;;;4954670;28;20026;-70
2021/12/22 09:33:11;;;;;;;17.55;9.05;;;1.60;80.00;;;;;;4954302;28;20443;-70
2021/12/22 09:35:38;;;;;;;11.70;6.95;;;1.40;79.70;;;;;;4954654;28;20387;-70
2021/12/22 09:38:05;;;;;;;19.10;10.77;;;1.40;80.40;;;;;;4949767;28;20110;-69
2021/12/22 09:40:30;;;;;;;16.42;8.13;;;1.60;80.80;;;;;;4954803;28;20028;-70
2021/12/22 09:42:56;;;;;;;12.77;6.85;;;1.60;80.50;;;;;;4952626;28;20034;-70
2021/12/22 09:45:24;;;;;;;15.65;8.90;;;1.70;80.50;;;;;;4950303;28;20038;-70
2021/12/22 09:50:50;;;;;;;18.23;9.50;;;1.80;80.20;;;;;;4954627;28;20506;-60
2021/12/22 09:53:18;;;;;;;16.08;9.13;;;1.70;80.10;;;;;;4936692;28;20066;-61
2021/12/22 09:55:44;;;;;;;16.52;9.30;;;1.70;80.20;;;;;;4977285;28;20359;-61
2021/12/22 09:58:11;;;;;;;21.30;10.23;;;1.90;80.60;;;;;;5021960;28;20049;-62
2021/12/22 10:00:38;;;;;;;16.95;9.57;;;1.80;80.20;;;;;;4952797;28;20074;-61
2021/12/22 10:03:05;;;;;;;18.08;9.25;;;1.80;80.30;;;;;;4944371;28;20482;-61
2021/12/22 10:05:31;;;;;;;17.42;9.10;;;1.70;80.20;;;;;;4999643;28;20043;-61
2021/12/22 10:08:14;;;;;;;16.45;8.50;;;1.90;80.80;;;;;;4942562;28;20102;-61
2021/12/22 10:10:46;;;;;;;15.60;9.30;;;1.80;80.00;;;;;;4947631;28;20047;-61
2021/12/22 10:13:18;;;;;;;19.83;10.82;;;1.90;80.10;;;;;;4958146;28;20046;-61
2021/12/22 10:15:45;;;;;;;20.52;10.18;;;1.80;79.80;;;;;;4937323;29;20034;-61
2021/12/22 10:18:15;;;;;;;14.80;8.77;;;1.80;80.40;;;;;;4938808;28;20019;-61
2021/12/22 10:20:42;;;;;;;16.35;8.85;;;1.70;79.80;;;;;;4947262;28;20027;-61
2021/12/22 10:23:22;;;;;;;17.58;9.55;;;1.70;80.00;;;;;;4946800;28;20058;-61
2021/12/22 10:26:00;;;;;;;21.25;10.77;;;1.70;80.60;;;;;;4932983;28;20035;-61
2021/12/22 10:28:28;;;;;;;21.63;12.10;;;1.70;80.60;;;;;;4949558;28;20018;-61
2021/12/22 10:31:01;;;;;;;21.70;11.90;;;1.50;80.20;;;;;;4976715;28;20035;-61
2021/12/22 10:33:29;;;;;;;19.27;9.80;;;1.60;81.70;;;;;;4936604;28;20035;-64
2021/12/22 10:36:11;;;;;;;16.00;8.63;;;1.60;81.10;;;;;;4936651;28;20118;-60
2021/12/22 10:38:37;;;;;;;19.00;10.18;;;1.60;80.90;;;;;;4936474;28;20063;-63
2021/12/22 10:41:06;;;;;;;18.00;9.75;;;1.60;81.00;;;;;;4933044;28;20074;-61
2021/12/22 10:43:34;;;;;;;22.38;11.70;;;1.80;81.40;;;;;;4934854;28;20536;-61
2021/12/22 10:46:04;;;;;;;20.30;10.88;;;1.80;80.60;;;;;;4975467;28;20474;-61
2021/12/22 10:51:31;;;;;;;17.33;8.95;;;1.50;81.20;;;;;;4948306;28;20100;-62
2021/12/22 10:53:58;;;;;;;18.90;10.25;;;1.60;81.50;;;;;;4943229;28;20032;-62
2021/12/22 10:56:35;;;;;;;22.17;10.75;;;1.70;81.90;;;;;;4933422;28;20030;-61
2021/12/22 10:59:20;;;;;;;15.35;8.85;;;1.70;81.30;;;;;;4931910;28;20055;-61
2021/12/22 11:01:57;;;;;;;18.05;9.43;;;1.70;81.50;;;;;;4948834;28;20108;-61
2021/12/22 11:04:27;;;;;;;17.20;9.45;;;1.90;81.70;;;;;;5012575;28;20021;-61
2021/12/22 11:06:55;;;;;;;20.63;10.15;;;2.00;81.80;;;;;;4945966;28;20502;-61
2021/12/22 11:09:23;;;;;;;17.55;9.73;;;2.10;81.50;;;;;;4943242;28;20101;-61
2021/12/22 11:11:56;;;;;;;20.42;10.73;;;2.20;81.20;;;;;;4944155;28;20028;-62
2021/12/22 11:14:42;;;;;;;18.03;10.43;;;2.00;80.60;;;;;;4934653;28;20461;-62
2021/12/22 11:17:09;;;;;;;18.02;10.02;;;2.00;80.60;;;;;;4935609;28;20387;-62
2021/12/22 11:19:37;;;;;;;14.70;8.98;;;2.00;80.50;;;;;;4933297;28;20027;-62
2021/12/22 11:22:12;;;;;;;17.27;10.20;;;1.90;80.60;;;;;;4944568;28;20023;-63
2021/12/22 11:24:44;;;;;;;19.63;9.95;;;2.00;81.10;;;;;;4937584;28;20389;-62
2021/12/22 11:27:17;;;;;;;16.33;9.35;;;2.00;80.50;;;;;;4938989;28;20028;-61
2021/12/22 11:29:46;;;;;;;21.23;11.57;;;2.10;81.70;;;;;;4935348;28;20027;-61
2021/12/22 11:32:13;;;;;;;19.10;10.45;;;2.20;80.10;;;;;;4933082;29;20136;-61
2021/12/22 11:34:43;;;;;;;17.38;10.02;;;2.10;80.30;;;;;;4935709;28;20027;-62
2021/12/22 11:37:13;;;;;;;22.85;11.68;;;2.10;80.40;;;;;;4938123;28;20024;-62
2021/12/22 11:39:39;;;;;;;16.17;9.23;;;2.20;80.30;;;;;;4942263;28;20488;-61
2021/12/22 11:42:07;;;;;;;19.70;11.35;;;2.10;80.20;;;;;;4945148;28;20494;-61
2021/12/22 11:44:35;;;;;;;18.30;10.90;;;2.10;80.00;;;;;;4938689;28;20073;-62
2021/12/22 11:47:03;;;;;;;19.63;10.52;;;2.10;80.30;;;;;;4934727;28;20392;-62
2021/12/22 11:49:34;;;;;;;20.15;10.48;;;2.00;80.30;;;;;;4936540;28;20023;-62
2021/12/22 11:52:22;;;;;;;20.83;11.05;;;2.10;80.50;;;;;;4938837;28;20060;-62
2021/12/22 11:55:11;;;;;;;19.02;10.50;;;2.10;80.70;;;;;;4938609;28;20036;-62
2021/12/22 11:57:37;;;;;;;21.58;11.00;;;2.10;79.90;;;;;;4938781;28;20119;-62
2021/12/22 12:00:26;;;;;;;20.27;10.88;;;2.10;80.20;;;;;;4939953;28;20043;-63
2021/12/22 12:02:53;;;;;;;17.60;10.48;;;2.30;81.20;;;;;;4943811;28;20062;-63
2021/12/22 12:05:20;;;;;;;18.75;10.82;;;2.60;81.30;;;;;;4966743;28;20542;-63
2021/12/22 12:08:17;;;;;;;21.45;10.80;;;2.70;80.20;;;;;;4936042;28;20153;-63
2021/12/22 12:10:49;;;;;;;17.70;9.15;;;2.70;79.60;;;;;;4947846;28;20109;-63
2021/12/22 12:13:27;;;;;;;18.83;10.55;;;2.80;79.50;;;;;;4950124;28;20070;-63
2021/12/22 12:21:54;;;;;;;23.38;12.30;;;2.40;78.60;;;;;;4950230;28;20485;-63
2021/12/22 12:24:41;;;;;;;19.92;10.95;;;2.40;79.50;;;;;;4950441;28;20506;-62
2021/12/22 12:27:31;;;;;;;19.35;10.95;;;2.40;79.70;;;;;;4941737;28;20481;-62
2021/12/22 12:30:04;;;;;;;18.88;10.68;;;2.50;80.40;;;;;;4937872;28;20032;-62
2021/12/22 12:32:50;;;;;;;16.50;10.23;;;2.70;80.60;;;;;;4934388;28;20501;-62
2021/12/22 12:38:17;;;;;;;17.67;9.95;;;2.60;79.10;;;;;;4934968;28;20034;-62
2021/12/22 12:40:55;;;;;;;17.05;9.77;;;2.60;79.80;;;;;;4949302;28;20019;-63
2021/12/22 12:43:46;;;;;;;21.55;11.45;;;2.70;79.70;;;;;;4967804;28;20024;-63
2021/12/22 12:46:21;;;;;;;15.80;10.10;;;2.70;79.40;;;;;;4947003;29;20027;-63
2021/12/22 12:48:47;;;;;;;21.77;11.07;;;2.70;79.30;;;;;;4948355;28;20055;-62
2021/12/22 12:51:13;;;;;;;18.58;11.02;;;2.70;79.20;;;;;;4942845;29;20114;-63
2021/12/22 12:53:44;;;;;;;21.25;11.63;;;2.50;78.60;;;;;;4936155;28;20123;-62
2021/12/22 12:56:12;;;;;;;18.05;10.30;;;2.40;79.50;;;;;;4948266;28;20028;-62
2021/12/22 12:59:00;;;;;;;20.23;11.35;;;2.50;80.00;;;;;;4935407;28;20032;-62
2021/12/22 13:01:47;;;;;;;22.33;12.88;;;2.50;79.70;;;;;;4948765;29;20069;-63
2021/12/22 13:04:37;;;;;;;21.25;11.40;;;2.60;80.10;;;;;;5007105;28;20409;-64
2021/12/22 13:07:20;;;;;;;19.67;10.45;;;2.40;79.40;;;;;;4947547;28;20491;-61
2021/12/22 13:09:51;;;;;;;20.63;11.32;;;2.40;80.40;;;;;;4940595;28;20048;-61
2021/12/22 13:17:49;;;;;;;20.30;11.48;;;2.40;80.10;;;;;;4941670;28;20463;-61
2021/12/22 13:20:18;;;;;;;20.75;11.80;;;2.40;80.50;;;;;;4948885;28;20031;-61
2021/12/22 13:22:49;;;;;;;21.08;11.95;;;2.50;81.20;;;;;;4949148;28;20031;-61
2021/12/22 13:25:16;;;;;;;20.20;10.65;;;2.50;80.60;;;;;;4936343;28;20036;-61
2021/12/22 13:27:56;;;;;;;20.20;11.55;;;2.50;80.60;;;;;;4946218;28;20426;-61
2021/12/22 13:30:25;;;;;;;19.55;10.88;;;2.60;80.80;;;;;;4947749;28;20027;-61
2021/12/22 13:33:06;;;;;;;18.60;11.43;;;2.80;80.30;;;;;;4944650;28;20044;-61
2021/12/22 13:35:40;;;;;;;22.20;12.98;;;2.70;80.20;;;;;;4935901;28;20027;-60